createdAt,value
2023-02-19T00:00:41.558Z,99.90
2023-02-19T00:06:06.858Z,99.90
2023-02-19T00:11:15.856Z,99.90
2023-02-19T00:16:31.764Z,99.90
2023-02-19T00:21:35.302Z,99.90
2023-02-19T00:26:41.209Z,99.90
2023-02-19T00:31:48.776Z,99.90
2023-02-19T00:36:52.110Z,99.90
2023-02-19T00:41:57.957Z,99.90
2023-02-19T00:47:01.268Z,99.90
2023-02-19T00:52:04.668Z,99.90
2023-02-19T00:57:07.769Z,99.90
2023-02-19T01:02:11.108Z,99.90
2023-02-19T01:07:14.766Z,99.90
2023-02-19T01:12:20.999Z,99.90
2023-02-19T01:17:24.501Z,99.90
2023-02-19T01:22:27.703Z,99.90
2023-02-19T01:27:30.984Z,99.90
2023-02-19T01:32:34.273Z,99.90
2023-02-19T01:37:38.472Z,99.90
2023-02-19T01:42:44.673Z,99.90
2023-02-19T01:47:54.576Z,99.90
2023-02-19T01:52:59.016Z,99.90
2023-02-19T01:58:03.755Z,99.90
2023-02-19T02:03:07.362Z,99.90
2023-02-19T02:08:29.615Z,99.90
2023-02-19T02:13:38.199Z,99.90
2023-02-19T02:18:53.759Z,99.90
2023-02-19T02:24:31.087Z,99.90
2023-02-19T02:29:53.219Z,99.90
2023-02-19T02:35:06.099Z,99.90
2023-02-19T02:40:12.575Z,99.90
2023-02-19T02:45:37.731Z,99.90
2023-02-19T02:51:14.307Z,99.90
2023-02-19T02:56:19.265Z,99.90
2023-02-19T03:01:51.361Z,99.90
2023-02-19T03:06:56.206Z,99.90
2023-02-19T03:12:22.968Z,99.90
2023-02-19T03:18:11.776Z,99.90
2023-02-19T03:23:17.564Z,99.90
2023-02-19T03:28:44.345Z,99.90
2023-02-19T03:33:52.691Z,99.90
2023-02-19T03:39:10.134Z,99.90
2023-02-19T03:44:22.225Z,99.90
2023-02-19T03:50:03.736Z,99.90
2023-02-19T03:55:19.726Z,99.90
2023-02-19T04:00:38.922Z,99.90
2023-02-19T04:05:47.538Z,99.90
2023-02-19T04:10:52.455Z,99.90
2023-02-19T04:16:01.376Z,99.90
2023-02-19T04:21:06.511Z,99.90
2023-02-19T04:26:11.340Z,99.90
2023-02-19T04:31:15.060Z,99.90
2023-02-19T04:36:18.417Z,99.90
2023-02-19T04:41:21.683Z,99.90
2023-02-19T04:46:25.444Z,99.90
2023-02-19T04:51:28.713Z,99.90
2023-02-19T04:56:32.464Z,99.90
2023-02-19T05:01:35.880Z,99.90
2023-02-19T05:06:39.105Z,99.90
2023-02-19T05:11:45.523Z,99.90
2023-02-19T05:16:51.782Z,99.90
2023-02-19T05:21:55.041Z,99.90
2023-02-19T05:26:58.678Z,99.90
2023-02-19T05:32:02.077Z,99.90
2023-02-19T05:37:05.483Z,99.90
2023-02-19T05:42:08.785Z,99.90
2023-02-19T05:47:12.313Z,99.90
2023-02-19T05:52:15.571Z,99.90
2023-02-19T05:57:20.833Z,99.90
2023-02-19T06:02:23.988Z,99.90
2023-02-19T06:07:27.460Z,99.90
2023-02-19T06:12:30.686Z,99.90
2023-02-19T06:17:34.805Z,99.90
2023-02-19T06:22:37.962Z,99.90
2023-02-19T06:27:41.250Z,99.90
2023-02-19T06:32:44.612Z,99.90
2023-02-19T06:37:48.938Z,99.90
2023-02-19T06:42:52.239Z,99.90
2023-02-19T06:47:55.602Z,99.90
2023-02-19T06:52:59.389Z,99.90
2023-02-19T06:58:02.801Z,99.90
2023-02-19T07:03:05.991Z,99.90
2023-02-19T07:08:10.127Z,99.90
2023-02-19T07:13:13.702Z,99.90
2023-02-19T07:18:17.083Z,99.90
2023-02-19T07:23:20.621Z,99.90
2023-02-19T07:28:23.906Z,99.90
2023-02-19T07:33:29.912Z,99.90
2023-02-19T07:38:33.275Z,99.90
2023-02-19T07:43:38.093Z,99.90
2023-02-19T07:48:43.325Z,99.90
2023-02-19T07:53:51.567Z,99.90
2023-02-19T07:58:55.268Z,99.90
2023-02-19T08:03:58.795Z,99.90
2023-02-19T08:09:01.980Z,99.90
2023-02-19T08:14:05.833Z,99.90
2023-02-19T08:19:09.009Z,99.90
2023-02-19T08:24:12.279Z,99.90
2023-02-19T08:29:15.796Z,99.90
2023-02-19T08:34:19.097Z,99.90
2023-02-19T08:39:22.407Z,99.90
2023-02-19T08:44:25.966Z,99.90
2023-02-19T08:49:33.526Z,99.90
2023-02-19T08:54:37.354Z,99.90
2023-02-19T08:59:40.592Z,99.90
2023-02-19T09:04:44.677Z,99.90
2023-02-19T09:09:48.022Z,99.90
2023-02-19T09:14:55.861Z,99.90
2023-02-19T09:19:59.984Z,99.90
2023-02-19T09:25:06.535Z,99.90
2023-02-19T09:30:10.369Z,99.90
2023-02-19T09:35:14.255Z,99.90
2023-02-19T09:40:24.427Z,99.90
2023-02-19T09:45:28.673Z,99.90
2023-02-19T09:50:38.091Z,99.90
2023-02-19T09:55:44.097Z,99.90
2023-02-19T10:00:50.305Z,99.90
2023-02-19T10:05:54.462Z,99.90
2023-02-19T10:11:08.144Z,99.90
2023-02-19T10:16:25.241Z,99.90
2023-02-19T10:21:32.675Z,99.90
2023-02-19T10:26:37.384Z,99.90
2023-02-19T10:31:41.589Z,99.90
2023-02-19T10:36:47.931Z,99.90
2023-02-19T10:41:55.044Z,99.90
2023-02-19T10:47:01.595Z,99.90
2023-02-19T10:52:34.744Z,99.90
2023-02-19T10:57:39.186Z,99.90
2023-02-19T11:02:45.853Z,99.90
2023-02-19T11:07:54.491Z,99.90
2023-02-19T11:13:09.844Z,99.90
2023-02-19T11:18:14.358Z,99.90
2023-02-19T11:23:24.652Z,99.90
2023-02-19T11:28:40.045Z,99.90
2023-02-19T11:33:57.637Z,99.90
2023-02-19T11:39:26.340Z,98.80
2023-02-19T11:44:49.098Z,99.90
2023-02-19T11:50:09.518Z,98.80
2023-02-19T11:55:32.437Z,99.30
2023-02-19T12:00:50.645Z,94.10
2023-02-19T12:06:28.635Z,93.10
2023-02-19T12:11:44.340Z,92.70
2023-02-19T12:16:57.275Z,91.60
2023-02-19T12:22:21.049Z,92.00
2023-02-19T12:27:53.612Z,91.00
2023-02-19T12:32:57.823Z,91.40
2023-02-19T12:38:16.460Z,90.70
2023-02-19T12:43:26.758Z,91.00
2023-02-19T12:48:40.342Z,86.30
2023-02-19T12:54:30.547Z,86.40
2023-02-19T12:59:56.558Z,84.70
2023-02-19T13:05:06.450Z,86.80
2023-02-19T13:10:11.941Z,90.30
2023-02-19T13:15:18.001Z,83.70
2023-02-19T13:20:35.672Z,83.20
2023-02-19T13:26:04.260Z,84.50
2023-02-19T13:31:44.835Z,86.30
2023-02-19T13:36:49.841Z,83.40
2023-02-19T13:41:57.779Z,86.70
2023-02-19T13:47:07.388Z,85.60
2023-02-19T13:52:36.570Z,84.90
2023-02-19T13:57:42.248Z,85.10
2023-02-19T14:02:46.599Z,86.30
2023-02-19T14:07:55.260Z,84.20
2023-02-19T14:13:02.689Z,83.70
2023-02-19T14:18:44.168Z,80.40
2023-02-19T14:23:56.846Z,76.10
2023-02-19T14:29:03.543Z,76.40
2023-02-19T14:34:25.072Z,77.80
2023-02-19T14:39:42.613Z,81.10
2023-02-19T14:44:58.784Z,83.10
2023-02-19T14:50:33.378Z,78.80
2023-02-19T14:55:43.626Z,74.00
2023-02-19T15:00:48.997Z,69.80
2023-02-19T15:06:14.022Z,71.00
2023-02-19T15:11:24.792Z,73.40
2023-02-19T15:16:32.361Z,74.40
2023-02-19T15:21:45.347Z,80.10
2023-02-19T15:26:52.833Z,78.50
2023-02-19T15:32:01.108Z,79.40
2023-02-19T15:37:14.139Z,78.50
2023-02-19T15:42:32.661Z,80.20
2023-02-19T15:47:42.569Z,83.70
2023-02-19T15:52:50.958Z,85.60
2023-02-19T15:58:04.859Z,88.60
2023-02-19T16:03:20.082Z,88.10
2023-02-19T16:08:38.438Z,86.70
2023-02-19T16:13:44.290Z,85.00
2023-02-19T16:18:50.979Z,83.70
2023-02-19T16:24:17.541Z,85.10
2023-02-19T16:29:28.579Z,88.10
2023-02-19T16:34:52.368Z,90.40
2023-02-19T16:40:30.152Z,90.00
2023-02-19T16:45:35.086Z,91.10
2023-02-19T16:50:43.996Z,92.50
2023-02-19T16:55:50.348Z,93.40
2023-02-19T17:00:56.738Z,94.40
2023-02-19T17:06:02.244Z,95.20
2023-02-19T17:11:14.122Z,95.90
2023-02-19T17:16:22.440Z,95.30
2023-02-19T17:21:30.256Z,95.30
2023-02-19T17:26:38.984Z,96.10
2023-02-19T17:31:44.258Z,96.40
2023-02-19T17:36:50.248Z,96.80
2023-02-19T17:41:56.636Z,98.40
2023-02-19T17:47:04.045Z,99.60
2023-02-19T17:52:09.161Z,99.90
2023-02-19T17:57:16.365Z,99.90
2023-02-19T18:02:21.828Z,99.90
2023-02-19T18:07:27.467Z,99.90
2023-02-19T18:12:36.604Z,99.90
2023-02-19T18:17:41.733Z,99.90
2023-02-19T18:22:48.165Z,99.90
2023-02-19T18:27:56.298Z,99.90
2023-02-19T18:33:18.097Z,99.90
2023-02-19T18:38:25.447Z,99.90
2023-02-19T18:43:29.829Z,99.90
2023-02-19T18:48:36.001Z,99.90
2023-02-19T18:53:45.437Z,99.90
2023-02-19T18:58:52.323Z,99.90
2023-02-19T19:04:01.425Z,99.90
2023-02-19T19:09:09.097Z,99.90
2023-02-19T19:14:15.631Z,99.90
2023-02-19T19:19:20.557Z,99.90
2023-02-19T19:24:26.361Z,99.90
2023-02-19T19:29:34.331Z,99.90
2023-02-19T19:34:40.713Z,99.90
2023-02-19T19:39:53.973Z,99.90
2023-02-19T19:44:59.231Z,99.90
2023-02-19T19:50:05.183Z,99.90
2023-02-19T19:55:12.555Z,99.90
2023-02-19T20:00:24.880Z,99.90
2023-02-19T20:05:32.386Z,99.90
2023-02-19T20:10:40.038Z,99.90
2023-02-19T20:15:46.939Z,99.90
2023-02-19T20:20:52.699Z,99.90
2023-02-19T20:26:06.287Z,99.90
2023-02-19T20:31:13.358Z,99.90
2023-02-19T20:36:21.147Z,99.90
2023-02-19T20:41:27.481Z,99.90
2023-02-19T20:46:36.197Z,99.90
2023-02-19T20:51:46.715Z,99.90
2023-02-19T20:56:54.696Z,99.90
2023-02-19T21:02:00.039Z,99.90
2023-02-19T21:07:07.152Z,99.90
2023-02-19T21:12:14.869Z,99.90
2023-02-19T21:17:23.387Z,99.90
2023-02-19T21:22:31.519Z,99.90
2023-02-19T21:27:35.438Z,99.90
2023-02-19T21:32:44.294Z,99.90
2023-02-19T21:37:52.024Z,99.90
2023-02-19T21:42:55.989Z,99.90
2023-02-19T21:47:59.430Z,99.90
2023-02-19T21:53:06.096Z,99.90
2023-02-19T21:58:13.078Z,99.90
2023-02-19T22:03:17.444Z,99.90
2023-02-19T22:08:21.870Z,99.90
2023-02-19T22:13:25.804Z,99.90
2023-02-19T22:18:29.611Z,99.90
2023-02-19T22:23:32.923Z,99.90
2023-02-19T22:28:36.413Z,99.90
2023-02-19T22:33:40.242Z,99.90
2023-02-19T22:38:43.534Z,99.90
2023-02-19T22:43:47.594Z,99.90
2023-02-19T22:48:51.348Z,99.90
2023-02-19T22:53:56.298Z,99.90
2023-02-19T22:58:59.861Z,99.90
2023-02-19T23:04:03.187Z,99.90
2023-02-19T23:09:11.015Z,99.90
2023-02-19T23:14:17.793Z,99.90
2023-02-19T23:19:21.320Z,99.90
2023-02-19T23:24:24.879Z,99.90
2023-02-19T23:29:30.191Z,99.90
2023-02-19T23:34:33.448Z,99.90
2023-02-19T23:39:37.084Z,99.90
2023-02-19T23:44:40.377Z,99.90
2023-02-19T23:49:43.814Z,99.90
2023-02-19T23:54:47.522Z,99.90
2023-02-19T23:59:51.083Z,99.90
